createdAt,value
2018-09-04T00:00:41.558Z,12.40
2018-09-04T00:03:09.090Z,12.73
2018-09-04T00:05:36.631Z,12.00
2018-09-04T00:08:04.412Z,13.33
2018-09-04T00:10:31.976Z,12.37
2018-09-04T00:12:59.502Z,13.40
2018-09-04T00:15:27.156Z,13.67
2018-09-04T00:17:54.664Z,13.17
2018-09-04T00:20:22.248Z,13.90
2018-09-04T00:22:49.750Z,13.43
2018-09-04T00:25:17.284Z,13.50
2018-09-04T00:27:44.825Z,13.90
2018-09-04T00:30:12.373Z,13.37
2018-09-04T00:32:40.086Z,13.37
2018-09-04T00:35:07.648Z,14.40
2018-09-04T00:37:35.254Z,16.60
2018-09-04T00:40:02.979Z,16.80
2018-09-04T00:42:30.533Z,16.97
2018-09-04T00:44:58.129Z,17.57
2018-09-04T00:47:25.655Z,16.30
2018-09-04T00:49:53.229Z,17.37
2018-09-04T00:52:20.868Z,16.77
2018-09-04T00:54:48.379Z,17.40
2018-09-04T00:57:15.931Z,15.50
2018-09-04T00:59:43.466Z,16.07
2018-09-04T01:02:10.995Z,15.03
2018-09-04T01:04:38.579Z,13.67
2018-09-04T01:07:06.155Z,14.27
2018-09-04T01:09:33.933Z,13.03
2018-09-04T01:12:01.470Z,13.03
2018-09-04T01:14:28.983Z,12.43
2018-09-04T01:16:56.607Z,11.37
2018-09-04T01:19:24.205Z,11.50
2018-09-04T01:21:51.721Z,11.20
2018-09-04T01:24:19.291Z,9.50
2018-09-04T01:26:46.841Z,9.40
2018-09-04T01:29:14.437Z,10.10
2018-09-04T01:31:42.015Z,9.00
2018-09-04T01:34:09.544Z,9.23
2018-09-04T01:36:37.117Z,10.10
2018-09-04T01:39:05.879Z,8.97
2018-09-04T01:41:34.104Z,9.53
2018-09-04T01:44:01.644Z,10.43
2018-09-04T01:46:29.262Z,9.70
2018-09-04T01:48:56.842Z,10.50
2018-09-04T01:51:24.396Z,9.33
2018-09-04T01:53:51.902Z,9.97
2018-09-04T01:56:19.423Z,10.10
2018-09-04T01:58:47.007Z,11.10
2018-09-04T02:01:14.594Z,9.17
2018-09-04T02:03:42.120Z,10.97
2018-09-04T02:06:09.658Z,9.90
2018-09-04T02:08:37.168Z,9.50
2018-09-04T02:11:05.454Z,10.27
2018-09-04T02:13:33.810Z,8.87
2018-09-04T02:16:01.442Z,9.77
2018-09-04T02:18:29.002Z,10.87
2018-09-04T02:20:56.534Z,10.37
2018-09-04T02:23:24.086Z,11.07
2018-09-04T02:25:51.642Z,10.70
2018-09-04T02:28:19.150Z,11.30
2018-09-04T02:30:46.656Z,11.67
2018-09-04T02:33:14.189Z,12.73
2018-09-04T02:35:41.739Z,11.33
2018-09-04T02:38:09.322Z,10.43
2018-09-04T02:40:37.164Z,11.43
2018-09-04T02:43:04.902Z,11.20
2018-09-04T02:45:32.449Z,12.03
2018-09-04T02:48:00.094Z,13.20
2018-09-04T02:50:27.642Z,13.57
2018-09-04T02:52:55.182Z,14.93
2018-09-04T02:55:22.689Z,12.87
2018-09-04T02:57:50.218Z,14.00
2018-09-04T03:00:17.830Z,14.60
2018-09-04T03:02:45.377Z,13.27
2018-09-04T03:05:12.917Z,14.97
2018-09-04T03:07:40.447Z,14.60
2018-09-04T03:10:08.210Z,14.07
2018-09-04T03:12:35.793Z,15.40
2018-09-04T03:15:03.444Z,12.77
2018-09-04T03:17:31.067Z,14.47
2018-09-04T03:19:58.653Z,15.97
2018-09-04T03:22:26.197Z,16.17
2018-09-04T03:24:53.733Z,15.10
2018-09-04T03:27:21.257Z,15.57
2018-09-04T03:29:48.790Z,14.87
2018-09-04T03:32:16.315Z,14.60
2018-09-04T03:34:43.858Z,14.47
2018-09-04T03:37:11.501Z,14.93
2018-09-04T03:39:39.079Z,14.60
2018-09-04T03:42:06.628Z,15.83
2018-09-04T03:44:34.186Z,15.17
2018-09-04T03:47:01.757Z,14.23
2018-09-04T03:49:29.312Z,15.43
2018-09-04T03:51:56.822Z,13.47
2018-09-04T03:54:24.379Z,14.83
2018-09-04T03:56:51.933Z,15.07
2018-09-04T03:59:19.484Z,14.73
2018-09-04T04:01:47.006Z,14.90
2018-09-04T04:04:14.535Z,15.87
2018-09-04T04:06:42.312Z,14.67
2018-09-04T04:09:10.782Z,13.00
2018-09-04T04:11:38.378Z,13.20
2018-09-04T04:14:05.962Z,15.47
2018-09-04T04:16:33.593Z,13.67
2018-09-04T04:19:01.143Z,14.47
2018-09-04T04:21:28.750Z,14.47
2018-09-04T04:23:56.435Z,13.60
2018-09-04T04:26:23.877Z,15.40
2018-09-04T04:28:51.482Z,15.20
2018-09-04T04:31:19.132Z,13.10
2018-09-04T04:33:46.656Z,12.37
2018-09-04T04:36:14.186Z,14.83
2018-09-04T04:38:41.710Z,13.03
2018-09-04T04:41:09.254Z,14.33
2018-09-04T04:43:36.793Z,11.53
2018-09-04T04:46:04.448Z,12.93
2018-09-04T04:48:31.977Z,12.37
2018-09-04T04:50:59.536Z,12.50
2018-09-04T04:53:27.034Z,12.50
2018-09-04T04:55:54.595Z,13.67
2018-09-04T04:58:22.138Z,11.23
2018-09-04T05:00:49.693Z,13.90
2018-09-04T05:03:17.262Z,11.97
2018-09-04T05:05:44.811Z,12.20
2018-09-04T05:08:12.397Z,13.47
2018-09-04T05:10:39.963Z,12.20
2018-09-04T05:13:07.565Z,15.10
2018-09-04T05:15:35.099Z,13.83
2018-09-04T05:18:02.681Z,15.13
2018-09-04T05:20:30.297Z,14.93
2018-09-04T05:22:57.872Z,13.40
2018-09-04T05:25:25.480Z,15.07
2018-09-04T05:27:53.043Z,13.13
2018-09-04T05:30:20.579Z,13.90
2018-09-04T05:32:53.775Z,10.47
2018-09-04T05:35:21.389Z,13.13
2018-09-04T05:37:48.921Z,13.90
2018-09-04T05:40:16.436Z,13.30
2018-09-04T05:42:46.735Z,13.43
2018-09-04T05:45:14.339Z,13.67
2018-09-04T05:47:42.043Z,11.77
2018-09-04T05:50:10.181Z,10.43
2018-09-04T05:52:37.810Z,9.77
2018-09-04T05:55:05.580Z,12.27
2018-09-04T05:57:33.118Z,10.77
2018-09-04T06:00:00.924Z,10.10
2018-09-04T06:02:30.122Z,10.03
2018-09-04T06:04:57.652Z,10.47
2018-09-04T06:07:25.200Z,9.33
2018-09-04T06:09:52.790Z,8.70
2018-09-04T06:12:20.334Z,9.10
2018-09-04T06:14:47.864Z,9.73
2018-09-04T06:17:15.370Z,7.70
2018-09-04T06:19:43.127Z,8.67
2018-09-04T06:22:10.709Z,7.83
2018-09-04T06:24:38.268Z,9.70
2018-09-04T06:27:05.874Z,8.20
2018-09-04T06:29:33.408Z,8.63
2018-09-04T06:32:00.953Z,10.87
2018-09-04T06:34:28.531Z,10.43
2018-09-04T06:36:56.125Z,8.27
2018-09-04T06:39:23.682Z,8.23
2018-09-04T06:41:51.267Z,10.43
2018-09-04T06:44:18.774Z,9.10
2018-09-04T06:46:46.321Z,10.80
2018-09-04T06:49:13.891Z,9.43
2018-09-04T06:51:41.432Z,10.00
2018-09-04T06:54:08.982Z,9.00
2018-09-04T06:56:36.496Z,13.13
2018-09-04T06:59:04.233Z,11.00
2018-09-04T07:01:32.014Z,9.77
2018-09-04T07:03:59.552Z,8.47
2018-09-04T07:06:27.080Z,10.23
2018-09-04T07:08:54.608Z,9.33
2018-09-04T07:11:22.166Z,9.03
2018-09-04T07:13:49.704Z,7.50
2018-09-04T07:16:17.244Z,9.50
2018-09-04T07:18:44.834Z,9.13
2018-09-04T07:21:12.362Z,8.60
2018-09-04T07:23:39.912Z,7.97
2018-09-04T07:26:07.558Z,7.70
2018-09-04T07:28:35.120Z,7.33
2018-09-04T07:31:02.738Z,7.50
2018-09-04T07:33:30.318Z,6.83
2018-09-04T07:35:57.852Z,8.00
2018-09-04T07:38:25.539Z,5.80
2018-09-04T07:40:53.061Z,5.63
2018-09-04T07:43:20.616Z,6.17
2018-09-04T07:45:48.211Z,6.23
2018-09-04T07:48:15.777Z,7.37
2018-09-04T07:50:43.293Z,5.57
2018-09-04T07:53:10.829Z,5.70
2018-09-04T07:55:38.445Z,5.03
2018-09-04T07:58:06.038Z,4.80
2018-09-04T08:00:33.628Z,5.50
2018-09-04T08:03:01.273Z,4.60
2018-09-04T08:05:28.919Z,5.00
2018-09-04T08:07:56.657Z,3.73
2018-09-04T08:10:24.170Z,3.67
2018-09-04T08:12:51.755Z,3.67
2018-09-04T08:15:19.344Z,3.60
2018-09-04T08:17:46.950Z,4.70
2018-09-04T08:20:14.493Z,5.47
2018-09-04T08:22:42.017Z,4.43
2018-09-04T08:25:09.614Z,4.50
2018-09-04T08:27:37.313Z,5.07
2018-09-04T08:30:04.951Z,6.17
2018-09-04T08:32:32.585Z,5.70
2018-09-04T08:35:00.137Z,6.47
2018-09-04T08:37:27.657Z,6.63
2018-09-04T08:39:55.249Z,7.87
2018-09-04T08:42:22.743Z,7.77
2018-09-04T08:44:50.289Z,7.40
2018-09-04T08:47:18.287Z,7.97
2018-09-04T08:49:45.828Z,7.67
2018-09-04T08:52:13.511Z,8.03
2018-09-04T08:54:41.117Z,8.20
2018-09-04T08:57:08.765Z,8.20
2018-09-04T08:59:36.372Z,7.40
2018-09-04T09:02:04.015Z,8.27
2018-09-04T09:04:31.626Z,7.93
2018-09-04T09:06:59.168Z,7.17
2018-09-04T09:09:26.705Z,8.30
2018-09-04T09:11:54.249Z,6.93
2018-09-04T09:14:21.823Z,7.40
2018-09-04T09:16:49.439Z,7.87
2018-09-04T09:19:16.900Z,7.20
2018-09-04T09:21:44.448Z,6.50
2018-09-04T09:24:12.007Z,7.20
2018-09-04T09:26:39.563Z,7.43
2018-09-04T09:29:07.070Z,6.97
2018-09-04T09:31:34.695Z,7.20
2018-09-04T09:34:02.207Z,7.83
2018-09-04T09:36:29.782Z,7.07
2018-09-04T09:38:57.350Z,7.00
2018-09-04T09:41:24.906Z,6.60
2018-09-04T09:43:52.436Z,7.17
2018-09-04T09:46:19.969Z,7.40
2018-09-04T09:48:47.762Z,6.47
2018-09-04T09:51:15.341Z,7.87
2018-09-04T09:53:42.947Z,8.30
2018-09-04T09:56:11.041Z,7.80
2018-09-04T09:58:39.352Z,8.17
2018-09-04T10:01:12.468Z,7.00
2018-09-04T10:03:48.586Z,6.73
2018-09-04T10:06:17.228Z,7.07
2018-09-04T10:08:44.836Z,6.43
2018-09-04T10:11:12.595Z,6.90
2018-09-04T10:13:40.084Z,5.87
2018-09-04T10:16:07.645Z,6.80
2018-09-04T10:18:35.195Z,6.47
2018-09-04T10:21:02.791Z,6.97
2018-09-04T10:23:30.616Z,7.60
2018-09-04T10:25:58.278Z,6.60
2018-09-04T10:28:25.910Z,7.83
2018-09-04T10:30:53.475Z,8.67
2018-09-04T10:33:20.993Z,9.10
2018-09-04T10:35:48.525Z,10.20
2018-09-04T10:38:16.285Z,9.83
2018-09-04T10:40:45.086Z,11.17
2018-09-04T10:43:12.643Z,11.83
2018-09-04T10:45:45.675Z,13.20
2018-09-04T10:48:13.997Z,12.47
2018-09-04T10:50:41.660Z,11.60
2018-09-04T10:53:09.281Z,13.63
2018-09-04T10:55:36.915Z,13.83
2018-09-04T10:58:05.092Z,11.87
2018-09-04T11:00:32.921Z,13.33
2018-09-04T11:03:00.791Z,13.87
2018-09-04T11:05:28.445Z,12.83
2018-09-04T11:07:56.108Z,12.47
2018-09-04T11:10:23.709Z,13.00
2018-09-04T11:12:51.628Z,12.83
2018-09-04T11:15:19.227Z,12.60
2018-09-04T11:17:46.807Z,12.43
2018-09-04T11:20:14.393Z,10.70
2018-09-04T11:22:41.942Z,11.87
2018-09-04T11:25:09.517Z,11.67
2018-09-04T11:27:37.529Z,12.40
2018-09-04T11:30:07.318Z,11.03
2018-09-04T11:32:34.837Z,10.27
2018-09-04T11:35:02.407Z,10.27
2018-09-04T11:37:29.966Z,11.00
2018-09-04T11:39:57.583Z,9.07
2018-09-04T11:42:25.111Z,10.57
2018-09-04T11:44:52.633Z,9.90
2018-09-04T11:47:20.164Z,9.67
2018-09-04T11:49:47.702Z,10.80
2018-09-04T11:52:15.274Z,8.90
2018-09-04T11:54:42.821Z,7.77
2018-09-04T11:57:10.370Z,8.40
2018-09-04T11:59:42.074Z,7.53
2018-09-04T12:02:40.266Z,6.60
2018-09-04T12:05:07.873Z,7.93
2018-09-04T12:07:35.426Z,8.07
2018-09-04T12:10:03.064Z,7.73
2018-09-04T12:12:32.654Z,8.10
2018-09-04T12:15:00.991Z,6.50
2018-09-04T12:17:28.586Z,8.10
2018-09-04T12:21:03.632Z,7.93
2018-09-04T12:23:31.102Z,7.30
2018-09-04T12:25:59.868Z,7.50
2018-09-04T12:28:28.183Z,7.60
2018-09-04T12:30:56.311Z,8.10
2018-09-04T12:33:23.963Z,7.10
2018-09-04T12:35:51.545Z,6.90
2018-09-04T12:38:21.386Z,6.57
2018-09-04T12:40:49.133Z,6.80
2018-09-04T12:43:16.712Z,6.83
2018-09-04T12:45:49.906Z,6.60
2018-09-04T12:48:25.470Z,6.00
2018-09-04T12:50:54.025Z,7.03
2018-09-04T12:53:22.384Z,6.30
2018-09-04T12:55:50.066Z,5.17
2018-09-04T12:58:17.666Z,5.60
2018-09-04T13:00:47.314Z,5.03
2018-09-04T13:03:16.236Z,5.17
2018-09-04T13:05:43.806Z,7.30
2018-09-04T13:08:11.973Z,5.37
2018-09-04T13:10:39.514Z,6.77
2018-09-04T13:13:07.146Z,6.73
2018-09-04T13:15:34.774Z,6.17
2018-09-04T13:18:02.575Z,7.37
2018-09-04T13:20:30.142Z,6.00
2018-09-04T13:22:57.737Z,6.60
2018-09-04T13:25:25.355Z,6.97
2018-09-04T13:27:52.974Z,5.60
2018-09-04T13:30:20.520Z,7.30
2018-09-04T13:32:48.077Z,6.37
2018-09-04T13:35:15.625Z,7.17
2018-09-04T13:37:43.151Z,7.00
2018-09-04T13:40:10.765Z,7.10
2018-09-04T13:42:38.421Z,7.00
2018-09-04T13:45:06.078Z,5.43
2018-09-04T13:47:34.207Z,6.30
2018-09-04T13:50:01.859Z,6.83
2018-09-04T13:52:30.413Z,5.23
2018-09-04T13:54:58.188Z,5.10
2018-09-04T13:57:26.327Z,5.10
2018-09-04T13:59:53.891Z,5.83
2018-09-04T14:02:21.469Z,5.07
2018-09-04T14:04:49.054Z,5.77
2018-09-04T14:07:16.663Z,5.33
2018-09-04T14:09:44.387Z,5.80
2018-09-04T14:12:12.159Z,5.40
2018-09-04T14:14:39.707Z,4.90
2018-09-04T14:17:09.745Z,5.83
2018-09-04T14:19:37.395Z,5.87
2018-09-04T14:22:05.364Z,6.10
2018-09-04T14:24:32.983Z,5.00
2018-09-04T14:27:00.523Z,5.87
2018-09-04T14:31:55.650Z,5.57
2018-09-04T14:34:23.194Z,6.50
2018-09-04T14:36:51.198Z,5.30
2018-09-04T14:39:18.584Z,5.47
2018-09-04T14:41:46.168Z,5.90
2018-09-04T14:44:13.742Z,5.10
2018-09-04T14:46:41.478Z,4.50
2018-09-04T14:49:09.058Z,5.17
2018-09-04T14:51:36.599Z,5.03
2018-09-04T14:54:04.208Z,5.10
2018-09-04T14:56:31.789Z,4.80
2018-09-04T14:58:59.345Z,5.30
2018-09-04T15:01:26.898Z,5.07
2018-09-04T15:03:54.443Z,4.50
2018-09-04T15:06:21.992Z,5.83
2018-09-04T15:08:49.560Z,6.00
2018-09-04T15:11:17.136Z,5.70
2018-09-04T15:13:44.809Z,5.07
2018-09-04T15:16:12.357Z,5.80
2018-09-04T15:18:39.926Z,5.80
2018-09-04T15:21:07.485Z,4.83
2018-09-04T15:23:35.106Z,6.07
2018-09-04T15:26:02.738Z,5.60
2018-09-04T15:28:30.326Z,6.27
2018-09-04T15:30:57.898Z,5.60
2018-09-04T15:33:25.495Z,5.70
2018-09-04T15:35:53.091Z,5.50
2018-09-04T15:38:20.668Z,5.93
2018-09-04T15:40:48.303Z,6.50
2018-09-04T15:43:15.910Z,6.23
2018-09-04T15:45:43.566Z,6.53
2018-09-04T15:48:11.099Z,6.37
2018-09-04T15:50:38.794Z,5.87
2018-09-04T15:53:06.385Z,6.10
2018-09-04T15:55:34.004Z,7.10
2018-09-04T15:58:01.581Z,7.23
2018-09-04T16:00:29.159Z,6.47
2018-09-04T16:02:56.731Z,6.50
2018-09-04T16:05:24.652Z,6.60
2018-09-04T16:07:52.257Z,7.20
2018-09-04T16:10:19.912Z,7.17
2018-09-04T16:12:47.883Z,8.03
2018-09-04T16:15:15.535Z,6.43
2018-09-04T16:17:43.158Z,7.23
2018-09-04T16:20:10.778Z,8.43
2018-09-04T16:22:38.402Z,7.97
2018-09-04T16:25:06.031Z,8.40
2018-09-04T16:27:33.766Z,7.70
2018-09-04T16:30:01.378Z,8.50
2018-09-04T16:32:29.054Z,8.83
2018-09-04T16:34:56.729Z,8.17
2018-09-04T16:37:24.377Z,9.30
2018-09-04T16:39:52.025Z,8.33
2018-09-04T16:42:19.698Z,9.93
2018-09-04T16:44:47.314Z,9.33
2018-09-04T16:47:15.061Z,9.13
2018-09-04T16:49:43.056Z,8.70
2018-09-04T16:52:10.747Z,9.50
2018-09-04T16:54:38.462Z,9.00
2018-09-04T16:57:06.103Z,10.20
2018-09-04T16:59:33.766Z,9.43
2018-09-04T17:02:01.477Z,10.17
2018-09-04T17:04:29.137Z,9.47
2018-09-04T17:06:56.748Z,11.43
2018-09-04T17:09:24.426Z,9.00
2018-09-04T17:11:52.142Z,11.20
2018-09-04T17:14:19.792Z,11.67
2018-09-04T17:16:47.444Z,11.67
2018-09-04T17:19:15.125Z,10.97
2018-09-04T17:21:42.792Z,12.73
2018-09-04T17:24:10.447Z,10.87
2018-09-04T17:26:38.088Z,10.97
2018-09-04T17:29:06.782Z,10.63
2018-09-04T17:31:34.457Z,10.43
2018-09-04T17:34:02.138Z,10.60
2018-09-04T17:36:29.720Z,12.50
2018-09-04T17:38:57.864Z,10.53
2018-09-04T17:41:25.501Z,10.93
2018-09-04T17:43:53.140Z,10.90
2018-09-04T17:46:20.784Z,13.03
2018-09-04T17:48:48.451Z,10.87
2018-09-04T17:51:16.080Z,15.13
2018-09-04T17:53:43.784Z,14.97
2018-09-04T17:56:11.452Z,14.30
2018-09-04T17:58:39.190Z,15.30
2018-09-04T18:01:06.898Z,13.23
2018-09-04T18:03:34.548Z,13.47
2018-09-04T18:06:02.259Z,13.73
2018-09-04T18:08:29.911Z,12.70
2018-09-04T18:10:57.593Z,14.00
2018-09-04T18:13:25.963Z,14.40
2018-09-04T18:15:53.742Z,13.70
2018-09-04T18:18:21.471Z,14.50
2018-09-04T18:20:49.730Z,15.70
2018-09-04T18:23:17.381Z,14.27
2018-09-04T18:25:44.983Z,15.70
2018-09-04T18:28:12.605Z,16.33
2018-09-04T18:30:40.346Z,16.43
2018-09-04T18:33:07.986Z,14.37
2018-09-04T18:35:35.661Z,12.10
2018-09-04T18:38:03.642Z,14.67
2018-09-04T18:40:32.329Z,13.40
2018-09-04T18:42:59.992Z,13.40
2018-09-04T18:45:40.122Z,13.90
2018-09-04T18:48:07.804Z,13.90
2018-09-04T18:50:35.705Z,14.10
2018-09-04T18:53:07.166Z,16.10
2018-09-04T18:55:35.155Z,15.30
2018-09-04T18:58:02.894Z,13.90
2018-09-04T19:00:31.553Z,15.10
2018-09-04T19:02:59.235Z,14.87
2018-09-04T19:06:12.491Z,15.33
2018-09-04T19:08:40.192Z,13.70
2018-09-04T19:11:08.668Z,13.87
2018-09-04T19:13:37.080Z,14.27
2018-09-04T19:16:04.932Z,14.60
2018-09-04T19:18:33.020Z,13.80
2018-09-04T19:21:00.683Z,13.73
2018-09-04T19:23:28.684Z,14.70
2018-09-04T19:25:56.389Z,13.47
2018-09-04T19:28:24.487Z,15.57
2018-09-04T19:30:52.351Z,15.27
2018-09-04T19:33:20.092Z,15.60
2018-09-04T19:35:47.806Z,16.00
2018-09-04T19:38:16.758Z,17.77
2018-09-04T19:40:44.454Z,14.40
2018-09-04T19:43:12.157Z,15.07
2018-09-04T19:45:39.965Z,14.80
2018-09-04T19:48:07.707Z,13.97
2018-09-04T19:50:35.470Z,14.10
2018-09-04T19:53:03.222Z,17.30
2018-09-04T19:55:31.122Z,19.60
2018-09-04T19:57:58.777Z,19.27
2018-09-04T20:00:26.476Z,18.23
2018-09-04T20:02:54.151Z,17.77
2018-09-04T20:05:21.853Z,15.90
2018-09-04T20:07:49.573Z,14.90
2018-09-04T20:10:17.295Z,15.20
2018-09-04T20:12:45.605Z,16.13
2018-09-04T20:15:13.290Z,17.27
2018-09-04T20:17:41.251Z,19.00
2018-09-04T20:20:08.977Z,18.63
2018-09-04T20:22:36.689Z,18.37
2018-09-04T20:25:04.387Z,17.03
2018-09-04T20:27:32.101Z,18.40
2018-09-04T20:29:59.799Z,17.27
2018-09-04T20:32:27.637Z,15.73
2018-09-04T20:34:55.881Z,16.43
2018-09-04T20:37:23.644Z,14.63
2018-09-04T20:39:51.385Z,16.27
2018-09-04T20:42:19.059Z,16.17
2018-09-04T20:44:46.807Z,15.83
2018-09-04T20:47:14.527Z,17.40
2018-09-04T20:49:42.395Z,17.33
2018-09-04T20:52:10.293Z,17.00
2018-09-04T20:54:37.994Z,16.47
2018-09-04T20:57:31.869Z,17.70
2018-09-04T21:00:19.369Z,15.30
2018-09-04T21:02:58.469Z,16.80
2018-09-04T21:05:37.753Z,18.20
2018-09-04T21:08:18.030Z,15.57
2018-09-04T21:10:46.468Z,17.20
2018-09-04T21:13:14.504Z,15.07
2018-09-04T21:15:42.098Z,15.07
2018-09-04T21:18:09.903Z,17.90
2018-09-04T21:20:37.565Z,18.43
2018-09-04T21:23:05.283Z,17.43
2018-09-04T21:25:32.817Z,16.20
2018-09-04T21:28:00.407Z,16.43
2018-09-04T21:30:28.194Z,15.63
2018-09-04T21:32:55.842Z,16.40
2018-09-04T21:35:23.632Z,16.27
2018-09-04T21:37:51.254Z,15.60
2018-09-04T21:40:18.909Z,16.23
2018-09-04T21:42:46.496Z,16.33
2018-09-04T21:45:14.114Z,15.80
2018-09-04T21:47:41.719Z,16.50
2018-09-04T21:50:09.687Z,15.90
2018-09-04T21:52:37.278Z,16.13
2018-09-04T21:55:05.431Z,15.70
2018-09-04T21:57:33.016Z,16.60
2018-09-04T22:00:00.587Z,14.30
2018-09-04T22:02:28.116Z,16.17
2018-09-04T22:04:55.681Z,15.77
2018-09-04T22:07:23.261Z,16.23
2018-09-04T22:09:50.807Z,13.67
2018-09-04T22:12:18.397Z,16.10
2018-09-04T22:14:46.015Z,16.60
2018-09-04T22:17:13.562Z,14.13
2018-09-04T22:19:41.133Z,14.20
2018-09-04T22:22:08.691Z,13.07
2018-09-04T22:24:36.567Z,12.40
2018-09-04T22:27:07.267Z,13.07
2018-09-04T22:29:35.942Z,12.90
2018-09-04T22:32:03.496Z,13.03
2018-09-04T22:34:31.563Z,12.30
2018-09-04T22:36:59.451Z,11.57
2018-09-04T22:39:27.002Z,10.37
2018-09-04T22:41:54.555Z,11.40
2018-09-04T22:44:22.130Z,10.00
2018-09-04T22:46:49.997Z,10.20
2018-09-04T22:49:17.564Z,10.17
2018-09-04T22:51:45.177Z,9.93
2018-09-04T22:54:12.869Z,9.30
2018-09-04T22:56:40.419Z,9.80
2018-09-04T22:59:08.019Z,10.93
2018-09-04T23:01:35.573Z,9.53
2018-09-04T23:04:03.134Z,9.57
2018-09-04T23:06:30.840Z,9.67
2018-09-04T23:08:58.411Z,10.80
2018-09-04T23:11:26.053Z,11.17
2018-09-04T23:13:53.617Z,9.63
2018-09-04T23:16:21.173Z,10.20
2018-09-04T23:18:48.699Z,9.93
2018-09-04T23:21:16.274Z,11.23
2018-09-04T23:23:43.889Z,9.57
2018-09-04T23:26:11.423Z,11.07
2018-09-04T23:28:38.994Z,9.83
2018-09-04T23:31:06.790Z,10.77
2018-09-04T23:33:34.656Z,9.30
2018-09-04T23:36:02.194Z,9.07
2018-09-04T23:38:29.733Z,8.70
2018-09-04T23:40:57.276Z,9.70
2018-09-04T23:43:24.880Z,10.50
2018-09-04T23:45:52.494Z,9.30
2018-09-04T23:48:20.110Z,9.80
2018-09-04T23:50:47.668Z,10.00
2018-09-04T23:53:15.238Z,9.60
2018-09-04T23:55:42.830Z,8.30
2018-09-04T23:58:10.354Z,9.03
